< Cyclone 197701 1977 Season Cyclone 197703 >
Cyclone 197702 (TED)
General InformationTrack Information on Google Maps || ResourceGoogle EarthGE AnimationAtom FeedGeoJSON
Detalied Best Track (Time Zone = UTC)
Year Month Day Hour Lat. Long. Pressure (hPa) Wind (kt) Class Image Chart
1976 12 15 23 -12.5 140.5 1005 0 0 -- --
1976 12 16 05 -12.6 140.1 1001 0 0 -- --
1976 12 16 11 -12.7 139.7 997 0 0 -- --
1976 12 16 17 -12.8 139.3 994 0 0 -- --
1976 12 16 23 -12.9 139.0 990 0 0 -- --
1976 12 17 05 -12.9 138.8 982 0 0 -- --
1976 12 17 11 -13.0 138.6 974 0 0 -- --
1976 12 17 17 -13.0 138.4 969 0 0 -- --
1976 12 17 23 -13.1 138.1 964 0 0 -- --
1976 12 18 02 -13.4 137.9 963 0 0 -- --
1976 12 18 05 -13.7 137.7 962 0 0 -- --
1976 12 18 08 -14.1 137.8 961 0 0 -- --
1976 12 18 11 -14.6 137.9 960 0 0 -- --
1976 12 18 17 -15.3 138.3 955 0 0 -- --
1976 12 18 23 -16.0 138.7 950 0 0 -- --
1976 12 19 02 -16.5 139.0 950 0 0 -- --
1976 12 19 05 -17.0 139.2 950 0 0 -- --
1976 12 19 08 -17.4 139.4 950 0 0 -- --
1976 12 19 11 -17.8 139.7 950 0 0 -- --
1976 12 19 14 -18.3 140.2 960 0 0 -- --
1976 12 19 17 -18.7 140.6 970 0 0 -- --
1976 12 19 20 -19.1 140.7 980 0 0 -- --
1976 12 19 23 -19.4 140.8 985 0 0 -- --
1976 12 20 05 -19.7 140.8 988 0 0 -- --
1976 12 20 11 -20.0 140.8 992 0 0 -- --
1976 12 20 17 -20.3 140.8 996 0 0 -- --
1976 12 20 23 -20.6 140.8 1000 0 0 -- --
< Cyclone 197701 1977 Season Cyclone 197703 >

Help